sensor_id;sensor_type;location;lat;lon;timestamp;temperature;humidity
19920;DHT22;10122;50.074;19.920;2023-01-10T00:00:22;7.60;99.90
19920;DHT22;10122;50.074;19.920;2023-01-10T00:02:49;7.70;99.90
19920;DHT22;10122;50.074;19.920;2023-01-10T00:05:15;7.70;99.90
19920;DHT22;10122;50.074;19.920;2023-01-10T00:07:41;7.70;99.90
19920;DHT22;10122;50.074;19.920;2023-01-10T00:10:07;7.70;99.90
19920;DHT22;10122;50.074;19.920;2023-01-10T00:12:33;7.70;99.90
19920;DHT22;10122;50.074;19.920;2023-01-10T00:15:17;7.70;99.90
19920;DHT22;10122;50.074;19.920;2023-01-10T00:17:43;7.60;99.90
19920;DHT22;10122;50.074;19.920;2023-01-10T00:20:09;7.60;99.90
19920;DHT22;10122;50.074;19.920;2023-01-10T00:22:35;7.60;99.90
19920;DHT22;10122;50.074;19.920;2023-01-10T00:25:01;7.60;99.90
19920;DHT22;10122;50.074;19.920;2023-01-10T00:27:27;7.60;99.90
19920;DHT22;10122;50.074;19.920;2023-01-10T00:29:53;7.50;99.90
19920;DHT22;10122;50.074;19.920;2023-01-10T00:32:19;7.60;99.90
19920;DHT22;10122;50.074;19.920;2023-01-10T00:34:46;7.50;99.90
19920;DHT22;10122;50.074;19.920;2023-01-10T00:37:12;7.50;99.90
19920;DHT22;10122;50.074;19.920;2023-01-10T00:39:38;7.50;99.90
19920;DHT22;10122;50.074;19.920;2023-01-10T00:42:04;7.50;99.90
19920;DHT22;10122;50.074;19.920;2023-01-10T00:44:48;7.50;99.90
19920;DHT22;10122;50.074;19.920;2023-01-10T00:47:14;7.50;99.90
19920;DHT22;10122;50.074;19.920;2023-01-10T00:49:40;7.40;99.90
19920;DHT22;10122;50.074;19.920;2023-01-10T00:52:06;7.40;99.90
19920;DHT22;10122;50.074;19.920;2023-01-10T00:54:31;7.40;99.90
19920;DHT22;10122;50.074;19.920;2023-01-10T00:56:57;7.40;99.90
19920;DHT22;10122;50.074;19.920;2023-01-10T00:59:23;7.40;99.90
19920;DHT22;10122;50.074;19.920;2023-01-10T01:01:50;7.40;99.90
19920;DHT22;10122;50.074;19.920;2023-01-10T01:04:16;7.40;99.90
19920;DHT22;10122;50.074;19.920;2023-01-10T01:06:44;7.40;99.90
19920;DHT22;10122;50.074;19.920;2023-01-10T01:09:12;7.40;99.90
19920;DHT22;10122;50.074;19.920;2023-01-10T01:11:38;7.40;99.90
19920;DHT22;10122;50.074;19.920;2023-01-10T01:14:04;7.40;99.90
19920;DHT22;10122;50.074;19.920;2023-01-10T01:16:30;7.40;99.90
19920;DHT22;10122;50.074;19.920;2023-01-10T01:18:56;7.30;99.90
19920;DHT22;10122;50.074;19.920;2023-01-10T01:21:22;7.30;99.90
19920;DHT22;10122;50.074;19.920;2023-01-10T01:23:53;7.40;99.90
19920;DHT22;10122;50.074;19.920;2023-01-10T01:26:22;7.40;99.90
19920;DHT22;10122;50.074;19.920;2023-01-10T01:28:47;7.40;99.90
19920;DHT22;10122;50.074;19.920;2023-01-10T01:31:13;7.40;99.90
19920;DHT22;10122;50.074;19.920;2023-01-10T01:33:39;7.40;99.90
19920;DHT22;10122;50.074;19.920;2023-01-10T01:36:09;7.40;99.90
19920;DHT22;10122;50.074;19.920;2023-01-10T01:38:37;7.40;99.90
19920;DHT22;10122;50.074;19.920;2023-01-10T01:41:03;7.30;99.90
19920;DHT22;10122;50.074;19.920;2023-01-10T01:43:29;7.30;99.90
19920;DHT22;10122;50.074;19.920;2023-01-10T01:46:00;7.30;99.90
19920;DHT22;10122;50.074;19.920;2023-01-10T01:48:37;7.30;99.90
19920;DHT22;10122;50.074;19.920;2023-01-10T01:51:16;7.30;99.90
19920;DHT22;10122;50.074;19.920;2023-01-10T01:53:59;7.30;99.90
19920;DHT22;10122;50.074;19.920;2023-01-10T01:56:37;7.30;99.90
19920;DHT22;10122;50.074;19.920;2023-01-10T01:59:17;7.30;99.90
19920;DHT22;10122;50.074;19.920;2023-01-10T02:01:47;7.30;99.90
19920;DHT22;10122;50.074;19.920;2023-01-10T02:04:19;7.40;99.90
19920;DHT22;10122;50.074;19.920;2023-01-10T02:06:47;7.40;99.90
19920;DHT22;10122;50.074;19.920;2023-01-10T02:09:28;7.40;99.90
19920;DHT22;10122;50.074;19.920;2023-01-10T02:11:56;7.40;99.90
19920;DHT22;10122;50.074;19.920;2023-01-10T02:14:24;7.40;99.90
19920;DHT22;10122;50.074;19.920;2023-01-10T02:16:49;7.40;99.90
19920;DHT22;10122;50.074;19.920;2023-01-10T02:27:36;7.30;99.90
19920;DHT22;10122;50.074;19.920;2023-01-10T02:36:05;7.20;99.90
19920;DHT22;10122;50.074;19.920;2023-01-10T02:41:17;7.10;99.90
19920;DHT22;10122;50.074;19.920;2023-01-10T02:44:00;7.10;99.90
19920;DHT22;10122;50.074;19.920;2023-01-10T02:46:29;7.10;99.90
19920;DHT22;10122;50.074;19.920;2023-01-10T02:48:55;7.20;99.90
19920;DHT22;10122;50.074;19.920;2023-01-10T02:51:26;7.20;99.90
19920;DHT22;10122;50.074;19.920;2023-01-10T02:57:03;7.20;99.90
19920;DHT22;10122;50.074;19.920;2023-01-10T02:59:41;7.20;99.90
19920;DHT22;10122;50.074;19.920;2023-01-10T03:10:43;7.20;99.90
19920;DHT22;10122;50.074;19.920;2023-01-10T03:13:18;7.20;99.90
19920;DHT22;10122;50.074;19.920;2023-01-10T03:15:47;7.20;99.90
19920;DHT22;10122;50.074;19.920;2023-01-10T03:18:23;7.20;99.90
19920;DHT22;10122;50.074;19.920;2023-01-10T03:20:53;7.20;99.90
19920;DHT22;10122;50.074;19.920;2023-01-10T03:23:22;7.20;99.90
19920;DHT22;10122;50.074;19.920;2023-01-10T03:25:49;7.20;99.90
19920;DHT22;10122;50.074;19.920;2023-01-10T03:28:25;7.10;99.90
19920;DHT22;10122;50.074;19.920;2023-01-10T03:33:27;7.20;99.90
19920;DHT22;10122;50.074;19.920;2023-01-10T03:39:24;7.10;99.90
19920;DHT22;10122;50.074;19.920;2023-01-10T03:44:32;7.10;99.90
19920;DHT22;10122;50.074;19.920;2023-01-10T03:49:45;7.10;99.90
19920;DHT22;10122;50.074;19.920;2023-01-10T03:52:15;7.10;99.90
19920;DHT22;10122;50.074;19.920;2023-01-10T03:54:43;7.20;99.90
19920;DHT22;10122;50.074;19.920;2023-01-10T03:57:15;7.20;99.90
19920;DHT22;10122;50.074;19.920;2023-01-10T03:59:41;7.20;99.90
19920;DHT22;10122;50.074;19.920;2023-01-10T04:02:06;7.20;99.90
19920;DHT22;10122;50.074;19.920;2023-01-10T04:04:32;7.30;99.90
19920;DHT22;10122;50.074;19.920;2023-01-10T04:06:58;7.30;99.90
19920;DHT22;10122;50.074;19.920;2023-01-10T04:09:23;7.20;99.90
19920;DHT22;10122;50.074;19.920;2023-01-10T04:11:49;7.30;99.90
19920;DHT22;10122;50.074;19.920;2023-01-10T04:14:15;7.20;99.90
19920;DHT22;10122;50.074;19.920;2023-01-10T04:16:41;7.20;99.90
19920;DHT22;10122;50.074;19.920;2023-01-10T04:19:06;7.20;99.90
19920;DHT22;10122;50.074;19.920;2023-01-10T04:21:32;7.30;99.90
19920;DHT22;10122;50.074;19.920;2023-01-10T04:23:58;7.20;99.90
19920;DHT22;10122;50.074;19.920;2023-01-10T04:26:23;7.10;99.90
19920;DHT22;10122;50.074;19.920;2023-01-10T04:28:49;7.10;99.90
19920;DHT22;10122;50.074;19.920;2023-01-10T04:31:15;7.10;99.90
19920;DHT22;10122;50.074;19.920;2023-01-10T04:33:41;7.10;99.90
19920;DHT22;10122;50.074;19.920;2023-01-10T04:36:07;7.10;99.90
19920;DHT22;10122;50.074;19.920;2023-01-10T04:38:33;7.00;99.90
19920;DHT22;10122;50.074;19.920;2023-01-10T04:40:58;7.10;99.90
19920;DHT22;10122;50.074;19.920;2023-01-10T04:43:24;7.00;99.90
19920;DHT22;10122;50.074;19.920;2023-01-10T04:45:50;7.00;99.90
19920;DHT22;10122;50.074;19.920;2023-01-10T04:48:16;7.00;99.90
19920;DHT22;10122;50.074;19.920;2023-01-10T04:50:42;6.90;99.90
19920;DHT22;10122;50.074;19.920;2023-01-10T04:53:12;6.90;99.90
19920;DHT22;10122;50.074;19.920;2023-01-10T04:55:38;6.90;99.90
19920;DHT22;10122;50.074;19.920;2023-01-10T04:58:04;6.90;99.90
19920;DHT22;10122;50.074;19.920;2023-01-10T05:00:30;6.90;99.90
19920;DHT22;10122;50.074;19.920;2023-01-10T05:02:56;6.90;99.90
19920;DHT22;10122;50.074;19.920;2023-01-10T05:05:22;6.90;99.90
19920;DHT22;10122;50.074;19.920;2023-01-10T05:07:48;6.90;99.90
19920;DHT22;10122;50.074;19.920;2023-01-10T05:10:14;6.90;99.90
19920;DHT22;10122;50.074;19.920;2023-01-10T05:12:40;6.90;99.90
19920;DHT22;10122;50.074;19.920;2023-01-10T05:15:06;6.80;99.90
19920;DHT22;10122;50.074;19.920;2023-01-10T05:17:32;6.70;99.90
19920;DHT22;10122;50.074;19.920;2023-01-10T05:19:57;6.60;99.90
19920;DHT22;10122;50.074;19.920;2023-01-10T05:22:23;6.70;99.90
19920;DHT22;10122;50.074;19.920;2023-01-10T05:24:49;6.70;99.90
19920;DHT22;10122;50.074;19.920;2023-01-10T05:27:15;6.60;99.90
19920;DHT22;10122;50.074;19.920;2023-01-10T05:29:41;6.60;99.90
19920;DHT22;10122;50.074;19.920;2023-01-10T05:32:06;6.70;99.90
19920;DHT22;10122;50.074;19.920;2023-01-10T05:34:32;6.70;99.90
19920;DHT22;10122;50.074;19.920;2023-01-10T05:36:58;6.70;99.90
19920;DHT22;10122;50.074;19.920;2023-01-10T05:39:23;6.50;99.90
19920;DHT22;10122;50.074;19.920;2023-01-10T05:41:49;6.60;99.90
19920;DHT22;10122;50.074;19.920;2023-01-10T05:44:15;6.70;99.90
19920;DHT22;10122;50.074;19.920;2023-01-10T05:46:40;6.70;99.90
19920;DHT22;10122;50.074;19.920;2023-01-10T05:49:06;6.60;99.90
19920;DHT22;10122;50.074;19.920;2023-01-10T05:51:32;6.60;99.90
19920;DHT22;10122;50.074;19.920;2023-01-10T05:53:58;6.70;99.90
19920;DHT22;10122;50.074;19.920;2023-01-10T05:56:24;6.70;99.90
19920;DHT22;10122;50.074;19.920;2023-01-10T05:58:50;6.70;99.90
19920;DHT22;10122;50.074;19.920;2023-01-10T06:01:16;6.80;99.90
19920;DHT22;10122;50.074;19.920;2023-01-10T06:03:42;6.80;99.90
19920;DHT22;10122;50.074;19.920;2023-01-10T06:06:08;6.80;99.90
19920;DHT22;10122;50.074;19.920;2023-01-10T06:08:33;6.80;99.90
19920;DHT22;10122;50.074;19.920;2023-01-10T06:11:04;6.70;99.90
19920;DHT22;10122;50.074;19.920;2023-01-10T06:13:30;6.80;99.90
19920;DHT22;10122;50.074;19.920;2023-01-10T06:15:56;6.70;99.90
19920;DHT22;10122;50.074;19.920;2023-01-10T06:18:22;6.60;99.90
19920;DHT22;10122;50.074;19.920;2023-01-10T06:20:48;6.60;99.90
19920;DHT22;10122;50.074;19.920;2023-01-10T06:23:14;6.50;99.90
19920;DHT22;10122;50.074;19.920;2023-01-10T06:25:39;6.50;99.90
19920;DHT22;10122;50.074;19.920;2023-01-10T06:28:10;6.40;99.90
19920;DHT22;10122;50.074;19.920;2023-01-10T06:30:36;6.50;99.90
19920;DHT22;10122;50.074;19.920;2023-01-10T06:33:03;6.50;99.90
19920;DHT22;10122;50.074;19.920;2023-01-10T06:35:30;6.50;99.90
19920;DHT22;10122;50.074;19.920;2023-01-10T06:37:56;6.50;99.90
19920;DHT22;10122;50.074;19.920;2023-01-10T06:40:22;6.60;99.90
19920;DHT22;10122;50.074;19.920;2023-01-10T06:42:48;6.60;99.90
19920;DHT22;10122;50.074;19.920;2023-01-10T06:45:15;6.50;99.90
19920;DHT22;10122;50.074;19.920;2023-01-10T06:47:41;6.50;99.90
19920;DHT22;10122;50.074;19.920;2023-01-10T06:50:07;6.40;99.90
19920;DHT22;10122;50.074;19.920;2023-01-10T06:52:33;6.40;99.90
19920;DHT22;10122;50.074;19.920;2023-01-10T06:54:59;6.50;99.90
19920;DHT22;10122;50.074;19.920;2023-01-10T06:57:24;6.50;99.90
19920;DHT22;10122;50.074;19.920;2023-01-10T06:59:52;6.50;99.90
19920;DHT22;10122;50.074;19.920;2023-01-10T07:02:18;6.40;99.90
19920;DHT22;10122;50.074;19.920;2023-01-10T07:04:44;6.40;99.90
19920;DHT22;10122;50.074;19.920;2023-01-10T07:07:10;6.30;99.90
19920;DHT22;10122;50.074;19.920;2023-01-10T07:09:35;6.30;99.90
19920;DHT22;10122;50.074;19.920;2023-01-10T07:12:01;6.20;99.90
19920;DHT22;10122;50.074;19.920;2023-01-10T07:14:27;6.20;99.90
19920;DHT22;10122;50.074;19.920;2023-01-10T07:16:53;6.10;99.90
19920;DHT22;10122;50.074;19.920;2023-01-10T07:19:19;6.10;99.90
19920;DHT22;10122;50.074;19.920;2023-01-10T07:21:45;6.20;99.90
19920;DHT22;10122;50.074;19.920;2023-01-10T07:24:11;6.20;99.90
19920;DHT22;10122;50.074;19.920;2023-01-10T07:26:37;6.30;99.90
19920;DHT22;10122;50.074;19.920;2023-01-10T07:29:02;6.30;99.90
19920;DHT22;10122;50.074;19.920;2023-01-10T07:31:28;6.20;99.90
19920;DHT22;10122;50.074;19.920;2023-01-10T07:33:54;6.20;99.90
19920;DHT22;10122;50.074;19.920;2023-01-10T07:36:20;6.10;99.90
19920;DHT22;10122;50.074;19.920;2023-01-10T07:38:46;6.00;99.90
19920;DHT22;10122;50.074;19.920;2023-01-10T07:41:11;6.00;99.90
19920;DHT22;10122;50.074;19.920;2023-01-10T07:43:37;6.00;99.90
19920;DHT22;10122;50.074;19.920;2023-01-10T07:46:05;6.00;99.90
19920;DHT22;10122;50.074;19.920;2023-01-10T07:48:34;6.00;99.90
19920;DHT22;10122;50.074;19.920;2023-01-10T07:51:01;6.10;99.90
19920;DHT22;10122;50.074;19.920;2023-01-10T07:53:28;6.10;99.90
19920;DHT22;10122;50.074;19.920;2023-01-10T07:55:57;6.00;99.90
19920;DHT22;10122;50.074;19.920;2023-01-10T07:58:23;5.90;99.90
19920;DHT22;10122;50.074;19.920;2023-01-10T08:00:48;5.90;99.90
19920;DHT22;10122;50.074;19.920;2023-01-10T08:03:15;6.00;99.90
19920;DHT22;10122;50.074;19.920;2023-01-10T08:05:41;6.00;99.90
19920;DHT22;10122;50.074;19.920;2023-01-10T08:08:08;6.00;99.90
19920;DHT22;10122;50.074;19.920;2023-01-10T08:10:36;6.00;99.90
19920;DHT22;10122;50.074;19.920;2023-01-10T08:13:02;6.00;99.90
19920;DHT22;10122;50.074;19.920;2023-01-10T08:15:28;6.10;99.90
19920;DHT22;10122;50.074;19.920;2023-01-10T08:17:53;6.00;99.90
19920;DHT22;10122;50.074;19.920;2023-01-10T08:20:19;6.20;99.90
19920;DHT22;10122;50.074;19.920;2023-01-10T08:22:45;6.10;99.90
19920;DHT22;10122;50.074;19.920;2023-01-10T08:25:11;6.20;99.90
19920;DHT22;10122;50.074;19.920;2023-01-10T08:27:36;6.30;99.90
19920;DHT22;10122;50.074;19.920;2023-01-10T08:30:04;6.50;99.90
19920;DHT22;10122;50.074;19.920;2023-01-10T08:32:30;6.50;99.90
19920;DHT22;10122;50.074;19.920;2023-01-10T08:34:55;6.40;99.90
19920;DHT22;10122;50.074;19.920;2023-01-10T08:37:21;6.30;99.90
19920;DHT22;10122;50.074;19.920;2023-01-10T08:39:47;6.30;99.90
19920;DHT22;10122;50.074;19.920;2023-01-10T08:42:13;6.40;99.90
19920;DHT22;10122;50.074;19.920;2023-01-10T08:44:49;6.40;99.90
19920;DHT22;10122;50.074;19.920;2023-01-10T08:47:15;6.30;99.90
19920;DHT22;10122;50.074;19.920;2023-01-10T08:49:41;6.30;99.90
19920;DHT22;10122;50.074;19.920;2023-01-10T08:52:07;6.20;99.90
19920;DHT22;10122;50.074;19.920;2023-01-10T08:54:32;6.20;99.90
19920;DHT22;10122;50.074;19.920;2023-01-10T08:56:58;6.20;99.90
19920;DHT22;10122;50.074;19.920;2023-01-10T08:59:24;6.30;99.90
19920;DHT22;10122;50.074;19.920;2023-01-10T09:01:49;6.30;99.90
19920;DHT22;10122;50.074;19.920;2023-01-10T09:04:15;6.20;99.90
19920;DHT22;10122;50.074;19.920;2023-01-10T09:06:41;6.20;99.90
19920;DHT22;10122;50.074;19.920;2023-01-10T09:09:07;6.30;99.90
19920;DHT22;10122;50.074;19.920;2023-01-10T09:11:34;6.40;99.90
19920;DHT22;10122;50.074;19.920;2023-01-10T09:13:59;6.30;99.90
19920;DHT22;10122;50.074;19.920;2023-01-10T09:16:25;6.20;99.90
19920;DHT22;10122;50.074;19.920;2023-01-10T09:18:51;6.20;99.90
19920;DHT22;10122;50.074;19.920;2023-01-10T09:21:17;6.10;99.90
19920;DHT22;10122;50.074;19.920;2023-01-10T09:23:42;6.20;99.90
19920;DHT22;10122;50.074;19.920;2023-01-10T09:26:09;6.20;99.90
19920;DHT22;10122;50.074;19.920;2023-01-10T09:28:34;6.40;99.90
19920;DHT22;10122;50.074;19.920;2023-01-10T09:31:00;6.30;99.90
19920;DHT22;10122;50.074;19.920;2023-01-10T09:33:28;6.40;99.90
19920;DHT22;10122;50.074;19.920;2023-01-10T09:35:57;6.40;99.90
19920;DHT22;10122;50.074;19.920;2023-01-10T09:38:23;6.40;99.90
19920;DHT22;10122;50.074;19.920;2023-01-10T09:44:27;6.60;99.90
19920;DHT22;10122;50.074;19.920;2023-01-10T09:47:19;6.60;99.90
19920;DHT22;10122;50.074;19.920;2023-01-10T09:49:59;6.50;99.90
19920;DHT22;10122;50.074;19.920;2023-01-10T09:52:35;6.50;99.90
19920;DHT22;10122;50.074;19.920;2023-01-10T09:55:27;6.60;99.90
19920;DHT22;10122;50.074;19.920;2023-01-10T09:57:56;6.50;99.90
19920;DHT22;10122;50.074;19.920;2023-01-10T10:00:35;6.50;99.90
19920;DHT22;10122;50.074;19.920;2023-01-10T10:03:04;6.40;99.90
19920;DHT22;10122;50.074;19.920;2023-01-10T10:05:36;6.40;99.90
19920;DHT22;10122;50.074;19.920;2023-01-10T10:08:02;6.50;99.90
19920;DHT22;10122;50.074;19.920;2023-01-10T10:11:25;6.60;99.90
19920;DHT22;10122;50.074;19.920;2023-01-10T10:27:34;6.70;99.90
19920;DHT22;10122;50.074;19.920;2023-01-10T10:30:30;6.70;99.90
19920;DHT22;10122;50.074;19.920;2023-01-10T10:33:33;6.70;99.90
19920;DHT22;10122;50.074;19.920;2023-01-10T10:36:17;6.60;99.90
19920;DHT22;10122;50.074;19.920;2023-01-10T10:38:46;6.60;99.90
19920;DHT22;10122;50.074;19.920;2023-01-10T10:41:17;6.60;99.90
19920;DHT22;10122;50.074;19.920;2023-01-10T10:43:50;6.70;99.90
19920;DHT22;10122;50.074;19.920;2023-01-10T10:46:17;6.70;99.90
19920;DHT22;10122;50.074;19.920;2023-01-10T10:48:49;6.70;99.90
19920;DHT22;10122;50.074;19.920;2023-01-10T10:51:36;6.70;99.90
19920;DHT22;10122;50.074;19.920;2023-01-10T10:54:03;6.80;99.90
19920;DHT22;10122;50.074;19.920;2023-01-10T10:56:31;6.90;99.90
19920;DHT22;10122;50.074;19.920;2023-01-10T10:58:58;6.90;99.90
19920;DHT22;10122;50.074;19.920;2023-01-10T11:01:24;6.90;99.90
19920;DHT22;10122;50.074;19.920;2023-01-10T11:06:19;6.80;99.90
19920;DHT22;10122;50.074;19.920;2023-01-10T11:08:47;7.00;99.90
19920;DHT22;10122;50.074;19.920;2023-01-10T11:11:27;6.80;99.90
19920;DHT22;10122;50.074;19.920;2023-01-10T11:13:58;6.90;99.90
19920;DHT22;10122;50.074;19.920;2023-01-10T11:16:30;6.80;99.90
19920;DHT22;10122;50.074;19.920;2023-01-10T11:19:21;6.80;99.90
19920;DHT22;10122;50.074;19.920;2023-01-10T11:21:56;6.80;99.90
19920;DHT22;10122;50.074;19.920;2023-01-10T11:24:30;6.70;99.90
19920;DHT22;10122;50.074;19.920;2023-01-10T11:26:59;6.80;99.90
19920;DHT22;10122;50.074;19.920;2023-01-10T11:31:58;6.60;99.90
19920;DHT22;10122;50.074;19.920;2023-01-10T11:34:34;6.60;99.90
19920;DHT22;10122;50.074;19.920;2023-01-10T11:37:27;6.50;99.90
19920;DHT22;10122;50.074;19.920;2023-01-10T11:42:43;6.50;99.90
19920;DHT22;10122;50.074;19.920;2023-01-10T11:50:36;6.50;99.90
19920;DHT22;10122;50.074;19.920;2023-01-10T11:53:04;6.50;99.90
19920;DHT22;10122;50.074;19.920;2023-01-10T11:55:33;6.40;99.90
19920;DHT22;10122;50.074;19.920;2023-01-10T11:58:06;6.50;99.90
19920;DHT22;10122;50.074;19.920;2023-01-10T12:00:42;6.50;99.90
19920;DHT22;10122;50.074;19.920;2023-01-10T12:03:30;6.50;99.90
19920;DHT22;10122;50.074;19.920;2023-01-10T12:06:12;6.70;99.90
19920;DHT22;10122;50.074;19.920;2023-01-10T12:08:38;6.70;99.90
19920;DHT22;10122;50.074;19.920;2023-01-10T12:11:30;6.60;99.90
19920;DHT22;10122;50.074;19.920;2023-01-10T12:14:00;6.50;99.90
19920;DHT22;10122;50.074;19.920;2023-01-10T12:16:33;6.50;99.90
19920;DHT22;10122;50.074;19.920;2023-01-10T12:19:01;6.60;99.90
19920;DHT22;10122;50.074;19.920;2023-01-10T12:24:04;6.50;99.90
19920;DHT22;10122;50.074;19.920;2023-01-10T12:26:31;6.60;99.90
19920;DHT22;10122;50.074;19.920;2023-01-10T12:29:04;6.60;99.90
19920;DHT22;10122;50.074;19.920;2023-01-10T12:31:33;6.50;99.90
19920;DHT22;10122;50.074;19.920;2023-01-10T12:34:24;6.60;99.90
19920;DHT22;10122;50.074;19.920;2023-01-10T12:37:00;6.50;99.90
19920;DHT22;10122;50.074;19.920;2023-01-10T12:39:38;6.40;99.90
19920;DHT22;10122;50.074;19.920;2023-01-10T12:45:15;6.30;99.90
19920;DHT22;10122;50.074;19.920;2023-01-10T12:48:23;6.30;99.90
19920;DHT22;10122;50.074;19.920;2023-01-10T12:50:44;6.30;99.90
19920;DHT22;10122;50.074;19.920;2023-01-10T12:53:28;6.20;99.90
19920;DHT22;10122;50.074;19.920;2023-01-10T12:55:57;6.30;99.90
19920;DHT22;10122;50.074;19.920;2023-01-10T12:58:33;6.30;99.90
19920;DHT22;10122;50.074;19.920;2023-01-10T13:01:01;6.30;99.90
19920;DHT22;10122;50.074;19.920;2023-01-10T13:03:30;6.30;99.90
19920;DHT22;10122;50.074;19.920;2023-01-10T13:05:57;6.30;99.90
19920;DHT22;10122;50.074;19.920;2023-01-10T13:08:27;6.30;99.90
19920;DHT22;10122;50.074;19.920;2023-01-10T13:10:54;6.30;99.90
19920;DHT22;10122;50.074;19.920;2023-01-10T13:18:34;6.20;99.90
19920;DHT22;10122;50.074;19.920;2023-01-10T13:21:11;6.20;99.90
19920;DHT22;10122;50.074;19.920;2023-01-10T13:23:50;6.30;99.90
19920;DHT22;10122;50.074;19.920;2023-01-10T13:26:17;6.40;99.90
19920;DHT22;10122;50.074;19.920;2023-01-10T13:28:56;6.30;99.90
19920;DHT22;10122;50.074;19.920;2023-01-10T13:31:31;6.30;99.90
19920;DHT22;10122;50.074;19.920;2023-01-10T13:34:04;6.20;99.90
19920;DHT22;10122;50.074;19.920;2023-01-10T13:36:56;6.20;99.90
19920;DHT22;10122;50.074;19.920;2023-01-10T13:45:16;6.30;99.90
19920;DHT22;10122;50.074;19.920;2023-01-10T14:00:52;6.40;99.90
19920;DHT22;10122;50.074;19.920;2023-01-10T14:08:55;6.50;99.90
19920;DHT22;10122;50.074;19.920;2023-01-10T14:11:25;6.40;99.90
19920;DHT22;10122;50.074;19.920;2023-01-10T14:14:00;6.40;99.90
19920;DHT22;10122;50.074;19.920;2023-01-10T14:16:38;6.50;99.90
19920;DHT22;10122;50.074;19.920;2023-01-10T14:19:17;6.50;99.90
19920;DHT22;10122;50.074;19.920;2023-01-10T14:21:51;6.40;99.90
19920;DHT22;10122;50.074;19.920;2023-01-10T14:24:34;6.50;99.90
19920;DHT22;10122;50.074;19.920;2023-01-10T14:27:03;6.50;99.90
19920;DHT22;10122;50.074;19.920;2023-01-10T14:29:31;6.60;99.90
19920;DHT22;10122;50.074;19.920;2023-01-10T14:31:59;6.60;99.90
19920;DHT22;10122;50.074;19.920;2023-01-10T14:34:30;6.50;99.90
19920;DHT22;10122;50.074;19.920;2023-01-10T14:37:07;6.40;99.90
19920;DHT22;10122;50.074;19.920;2023-01-10T14:39:34;6.50;99.90
19920;DHT22;10122;50.074;19.920;2023-01-10T14:42:06;6.40;99.90
19920;DHT22;10122;50.074;19.920;2023-01-10T14:44:58;6.30;99.90
19920;DHT22;10122;50.074;19.920;2023-01-10T14:47:32;6.30;99.90
19920;DHT22;10122;50.074;19.920;2023-01-10T14:49:58;6.30;99.90
19920;DHT22;10122;50.074;19.920;2023-01-10T14:52:33;6.40;99.90
19920;DHT22;10122;50.074;19.920;2023-01-10T14:57:37;6.40;99.90
19920;DHT22;10122;50.074;19.920;2023-01-10T15:02:31;6.30;99.90
19920;DHT22;10122;50.074;19.920;2023-01-10T15:05:20;6.40;99.90
19920;DHT22;10122;50.074;19.920;2023-01-10T15:07:48;6.40;99.90
19920;DHT22;10122;50.074;19.920;2023-01-10T15:12:42;6.40;99.90
19920;DHT22;10122;50.074;19.920;2023-01-10T15:15:23;6.30;99.90
19920;DHT22;10122;50.074;19.920;2023-01-10T15:17:52;6.30;99.90
19920;DHT22;10122;50.074;19.920;2023-01-10T15:20:19;6.30;99.90
19920;DHT22;10122;50.074;19.920;2023-01-10T15:22:59;6.20;99.90
19920;DHT22;10122;50.074;19.920;2023-01-10T15:25:32;6.20;99.90
19920;DHT22;10122;50.074;19.920;2023-01-10T15:28:03;6.20;99.90
19920;DHT22;10122;50.074;19.920;2023-01-10T15:30:34;6.20;99.90
19920;DHT22;10122;50.074;19.920;2023-01-10T15:33:03;6.30;99.90
19920;DHT22;10122;50.074;19.920;2023-01-10T15:35:30;6.40;99.90
19920;DHT22;10122;50.074;19.920;2023-01-10T15:38:23;6.50;99.90
19920;DHT22;10122;50.074;19.920;2023-01-10T15:41:00;6.30;99.90
19920;DHT22;10122;50.074;19.920;2023-01-10T15:43:32;6.20;99.90
19920;DHT22;10122;50.074;19.920;2023-01-10T15:45:59;6.30;99.90
19920;DHT22;10122;50.074;19.920;2023-01-10T15:48:40;6.40;99.90
19920;DHT22;10122;50.074;19.920;2023-01-10T15:54:03;6.30;99.90
19920;DHT22;10122;50.074;19.920;2023-01-10T15:56:49;6.40;99.90
19920;DHT22;10122;50.074;19.920;2023-01-10T15:59:31;6.50;99.90
19920;DHT22;10122;50.074;19.920;2023-01-10T16:02:24;6.50;99.90
19920;DHT22;10122;50.074;19.920;2023-01-10T16:04:55;6.50;99.90
19920;DHT22;10122;50.074;19.920;2023-01-10T16:07:31;6.60;99.90
19920;DHT22;10122;50.074;19.920;2023-01-10T16:10:18;6.50;99.90
19920;DHT22;10122;50.074;19.920;2023-01-10T16:12:45;6.40;99.90
19920;DHT22;10122;50.074;19.920;2023-01-10T16:15:34;6.30;99.90
19920;DHT22;10122;50.074;19.920;2023-01-10T16:18:00;6.40;99.90
19920;DHT22;10122;50.074;19.920;2023-01-10T16:20:40;6.40;99.90
19920;DHT22;10122;50.074;19.920;2023-01-10T16:23:14;6.30;99.90
19920;DHT22;10122;50.074;19.920;2023-01-10T16:25:43;6.40;99.90
19920;DHT22;10122;50.074;19.920;2023-01-10T16:28:12;6.30;99.90
19920;DHT22;10122;50.074;19.920;2023-01-10T16:30:38;6.20;99.90
19920;DHT22;10122;50.074;19.920;2023-01-10T16:33:14;6.20;99.90
19920;DHT22;10122;50.074;19.920;2023-01-10T16:35:45;6.30;99.90
19920;DHT22;10122;50.074;19.920;2023-01-10T16:38:11;6.30;99.90
19920;DHT22;10122;50.074;19.920;2023-01-10T16:40:43;6.40;99.90
19920;DHT22;10122;50.074;19.920;2023-01-10T16:43:10;6.40;99.90
19920;DHT22;10122;50.074;19.920;2023-01-10T16:45:43;6.40;99.90
19920;DHT22;10122;50.074;19.920;2023-01-10T16:48:09;6.30;99.90
19920;DHT22;10122;50.074;19.920;2023-01-10T16:50:35;6.30;99.90
19920;DHT22;10122;50.074;19.920;2023-01-10T16:53:01;6.30;99.90
19920;DHT22;10122;50.074;19.920;2023-01-10T16:55:49;6.40;99.90
19920;DHT22;10122;50.074;19.920;2023-01-10T16:58:16;6.30;99.90
19920;DHT22;10122;50.074;19.920;2023-01-10T17:00:43;6.30;99.90
19920;DHT22;10122;50.074;19.920;2023-01-10T17:03:20;6.30;99.90
19920;DHT22;10122;50.074;19.920;2023-01-10T17:05:46;6.30;99.90
19920;DHT22;10122;50.074;19.920;2023-01-10T17:08:21;6.40;99.90
19920;DHT22;10122;50.074;19.920;2023-01-10T17:10:49;6.40;99.90
19920;DHT22;10122;50.074;19.920;2023-01-10T17:13:24;6.40;99.90
19920;DHT22;10122;50.074;19.920;2023-01-10T17:15:50;6.40;99.90
19920;DHT22;10122;50.074;19.920;2023-01-10T17:18:16;6.50;99.90
19920;DHT22;10122;50.074;19.920;2023-01-10T17:20:42;6.50;99.90
19920;DHT22;10122;50.074;19.920;2023-01-10T17:23:10;6.50;99.90
19920;DHT22;10122;50.074;19.920;2023-01-10T17:25:37;6.40;99.90
19920;DHT22;10122;50.074;19.920;2023-01-10T17:28:03;6.40;99.90
19920;DHT22;10122;50.074;19.920;2023-01-10T17:30:28;6.40;99.90
19920;DHT22;10122;50.074;19.920;2023-01-10T17:32:54;6.40;99.90
19920;DHT22;10122;50.074;19.920;2023-01-10T17:35:20;6.30;99.90
19920;DHT22;10122;50.074;19.920;2023-01-10T17:37:51;6.30;99.90
19920;DHT22;10122;50.074;19.920;2023-01-10T17:40:16;6.30;99.90
19920;DHT22;10122;50.074;19.920;2023-01-10T17:42:43;6.40;99.90